Time;durP1;ratioP1;P1;durP2;ratioP2;P2;SDS_P1;SDS_P2;PMS_P1;PMS_P2;Temp;Humidity;BMP_temperature;BMP_pressure;BME280_temperature;BME280_humidity;BME280_pressure;Samples;Min_cycle;Max_cycle;Signal;HPM_P1;HPM_P2
2023/06/27 00:01:26;;;;;;;3.43;3.23;;;;;;;-145.94;53.79;76851.31;5114574;28;20281;-66
2023/06/27 00:03:53;;;;;;;3.33;3.33;;;;;;;-145.94;53.67;76853.34;5114856;28;20626;-66
2023/06/27 00:06:20;;;;;;;3.40;3.40;;;;;;;-145.94;53.79;76859.47;5114816;28;20185;-66
2023/06/27 00:08:47;;;;;;;3.97;3.63;;;;;;;-145.94;54.11;76869.66;5115133;28;20173;-66
2023/06/27 00:11:14;;;;;;;3.50;3.47;;;;;;;-145.94;54.01;76873.75;5114667;28;20553;-66
2023/06/27 00:13:41;;;;;;;4.00;3.87;;;;;;;-145.94;54.18;76869.66;5114453;28;20204;-66
2023/06/27 00:16:12;;;;;;;4.27;4.17;;;;;;;-145.94;53.96;76875.78;5114388;28;20189;-66
2023/06/27 00:18:40;;;;;;;3.57;3.37;;;;;;;-145.94;54.43;76873.75;5114926;28;20516;-66
2023/06/27 00:21:07;;;;;;;3.57;3.57;;;;;;;-145.94;54.43;76873.75;5114524;28;20551;-66
2023/06/27 00:23:33;;;;;;;4.13;4.03;;;;;;;-145.94;54.51;76883.94;5114294;28;20181;-66
2023/06/27 00:26:02;;;;;;;3.97;3.87;;;;;;;-145.94;54.79;76890.06;5114479;28;20189;-66
2023/06/27 00:28:29;;;;;;;3.80;3.70;;;;;;;-145.94;54.67;76892.09;5113924;28;20205;-66
2023/06/27 00:30:56;;;;;;;3.63;3.47;;;;;;;-145.94;54.92;76888.03;5113859;28;20209;-66
2023/06/27 00:33:22;;;;;;;3.97;3.80;;;;;;;-145.94;54.46;76890.06;5114086;28;20185;-66
2023/06/27 00:35:49;;;;;;;4.30;4.10;;;;;;;-145.94;54.65;76890.06;5113980;28;20671;-66
2023/06/27 00:38:16;;;;;;;3.07;2.80;;;;;;;-145.94;54.89;76896.19;5114046;28;20597;-66
2023/06/27 00:40:42;;;;;;;3.47;3.37;;;;;;;-145.94;54.96;76896.19;5113922;28;20213;-66
2023/06/27 00:43:08;;;;;;;3.37;3.27;;;;;;;-145.94;55.37;76904.34;5115001;28;20556;-66
2023/06/27 00:45:35;;;;;;;4.10;3.87;;;;;;;-145.94;55.49;76896.19;5114201;28;20234;-66
2023/06/27 00:48:02;;;;;;;3.33;3.07;;;;;;;-145.94;55.48;76900.25;5095687;28;20235;-66
2023/06/27 00:50:31;;;;;;;3.30;3.10;;;;;;;-145.94;55.63;76900.25;5096169;28;20235;-66
2023/06/27 00:53:01;;;;;;;3.13;3.13;;;;;;;-145.94;55.63;76898.22;5095530;28;20209;-66
2023/06/27 00:55:30;;;;;;;3.70;3.70;;;;;;;-145.94;56.06;76906.38;5095591;28;20559;-66
2023/06/27 00:57:57;;;;;;;3.07;2.97;;;;;;;-145.94;55.98;76902.28;5095492;28;20213;-66
2023/06/27 01:00:23;;;;;;;3.50;3.40;;;;;;;-145.94;56.24;76912.50;5114240;28;20209;-66
2023/06/27 01:02:50;;;;;;;3.70;3.40;;;;;;;-145.94;56.23;76914.53;5113997;28;20647;-66
2023/06/27 01:05:18;;;;;;;3.13;3.13;;;;;;;-145.94;56.24;76926.78;5095457;28;20659;-66
2023/06/27 01:08:05;;;;;;;3.20;3.00;;;;;;;-145.94;56.18;76928.81;5114201;28;20643;-66
2023/06/27 01:10:46;;;;;;;3.50;3.40;;;;;;;-145.94;56.40;76930.84;5114205;28;20201;-66
2023/06/27 01:13:20;;;;;;;6.57;3.57;;;;;;;-145.94;56.20;76939.00;5095368;28;20674;-66
2023/06/27 01:15:46;;;;;;;3.07;3.07;;;;;;;-145.94;56.33;76926.78;5095455;28;20688;-66
2023/06/27 01:18:15;;;;;;;3.47;3.47;;;;;;;-145.94;56.47;76934.94;5095346;28;20665;-66
2023/06/27 01:20:44;;;;;;;2.93;2.93;;;;;;;-145.94;56.48;76930.84;5113516;28;20689;-66
2023/06/27 01:23:20;;;;;;;3.70;3.60;;;;;;;-145.94;56.73;76932.88;5095320;28;20189;-66
2023/06/27 01:25:49;;;;;;;3.03;3.03;;;;;;;-145.94;56.79;76924.72;5113568;28;20174;-66
2023/06/27 01:28:17;;;;;;;3.33;3.23;;;;;;;-145.94;56.84;76930.84;5095239;28;20246;-66
2023/06/27 01:30:44;;;;;;;3.57;3.37;;;;;;;-145.94;57.04;76930.84;5113825;28;20205;-66
2023/06/27 01:33:21;;;;;;;3.57;3.47;;;;;;;-145.94;57.14;76924.72;5113829;28;20254;-66
2023/06/27 01:35:56;;;;;;;2.93;2.93;;;;;;;-145.94;57.13;76928.81;5095277;28;20583;-66
2023/06/27 01:38:35;;;;;;;3.23;3.23;;;;;;;-145.94;57.55;76924.72;5095193;28;20187;-66
2023/06/27 01:41:03;;;;;;;4.70;4.37;;;;;;;-145.94;57.56;76920.66;5097429;28;20219;-66
2023/06/27 01:43:31;;;;;;;3.33;3.30;;;;;;;-145.94;57.99;76928.81;5117632;28;20212;-66
2023/06/27 01:45:58;;;;;;;3.50;3.40;;;;;;;-145.94;57.76;76926.78;5099024;28;20716;-66
2023/06/27 01:48:25;;;;;;;3.90;3.77;;;;;;;-145.94;58.12;76934.94;5117247;28;20185;-66
2023/06/27 01:50:54;;;;;;;2.90;2.70;;;;;;;-145.94;57.96;76936.97;5098885;28;20250;-66
2023/06/27 01:53:20;;;;;;;3.10;2.87;;;;;;;-145.94;58.16;76932.88;5099122;28;20213;-66
2023/06/27 01:55:47;;;;;;;3.37;3.37;;;;;;;-145.94;58.38;76928.81;5117382;28;20185;-66
2023/06/27 01:58:15;;;;;;;6.43;3.20;;;;;;;-145.94;57.99;76934.94;5099261;28;20563;-66
2023/06/27 02:00:43;;;;;;;3.93;3.73;;;;;;;-145.94;58.17;76934.94;5098732;28;20213;-66
2023/06/27 02:03:11;;;;;;;3.90;3.80;;;;;;;-145.94;58.12;76934.94;5117019;28;20173;-66
2023/06/27 02:05:38;;;;;;;3.97;3.83;;;;;;;-145.94;58.16;76926.78;5117491;28;20522;-66
2023/06/27 02:08:05;;;;;;;4.70;4.50;;;;;;;-145.94;57.95;76924.72;5098645;28;20242;-66
2023/06/27 02:10:31;;;;;;;4.07;3.87;;;;;;;-145.94;58.09;76922.69;5116798;28;20205;-66
2023/06/27 02:13:01;;;;;;;3.97;3.70;;;;;;;-145.94;58.27;76922.69;5116736;28;20254;-66
2023/06/27 02:15:27;;;;;;;3.73;3.73;;;;;;;-145.94;58.02;76918.63;5098585;28;20193;-66
2023/06/27 02:17:59;;;;;;;3.80;3.80;;;;;;;-145.94;58.15;76920.66;5098701;28;20242;-66
2023/06/27 02:20:26;;;;;;;4.00;4.00;;;;;;;-145.94;58.16;76914.53;5098333;28;20216;-66
2023/06/27 02:22:52;;;;;;;4.50;4.40;;;;;;;-145.94;58.01;76914.53;5117145;28;20189;-66
2023/06/27 02:25:18;;;;;;;4.37;4.17;;;;;;;-145.94;58.10;76916.56;5098294;28;20246;-66
2023/06/27 02:27:45;;;;;;;4.27;4.13;;;;;;;-145.94;58.23;76904.34;5098307;28;20193;-66
2023/06/27 02:30:12;;;;;;;6.67;4.77;;;;;;;-145.94;58.54;76900.25;5098027;28;20216;-66
2023/06/27 02:32:38;;;;;;;4.33;3.97;;;;;;;-145.94;58.32;76898.22;5116375;28;20270;-66
2023/06/27 02:35:05;;;;;;;3.37;3.27;;;;;;;-145.94;58.24;76898.22;5098082;28;20296;-66
2023/06/27 02:37:31;;;;;;;3.90;3.90;;;;;;;-145.94;58.23;76894.13;5116390;28;20549;-66
2023/06/27 02:39:58;;;;;;;3.70;3.60;;;;;;;-145.94;58.29;76890.06;5116533;28;20213;-67
2023/06/27 02:42:24;;;;;;;6.73;4.00;;;;;;;-145.94;58.11;76900.25;5116247;28;20178;-67
2023/06/27 02:44:51;;;;;;;3.97;3.60;;;;;;;-145.94;59.00;76898.22;5097971;28;20200;-66
2023/06/27 02:47:19;;;;;;;7.27;4.40;;;;;;;-145.94;58.71;76898.22;5097906;28;20196;-66
2023/06/27 02:49:45;;;;;;;4.27;4.27;;;;;;;-145.94;58.85;76906.38;5097774;28;20193;-66
2023/06/27 02:52:11;;;;;;;3.80;3.80;;;;;;;-145.94;58.68;76904.34;5096626;28;20562;-66
2023/06/27 02:54:38;;;;;;;4.00;3.90;;;;;;;-145.94;58.78;76900.25;5097852;28;20234;-66
2023/06/27 02:57:05;;;;;;;4.07;3.97;;;;;;;-145.94;58.44;76896.19;5097707;28;20605;-66
2023/06/27 02:59:33;;;;;;;4.27;3.97;;;;;;;-145.94;58.85;76902.28;5097525;28;20185;-66
2023/06/27 03:02:00;;;;;;;4.23;4.03;;;;;;;-145.94;58.80;76892.09;5097850;28;20734;-66
2023/06/27 03:04:27;;;;;;;4.63;4.50;;;;;;;-145.94;58.47;76898.22;5097447;28;20203;-66
2023/06/27 03:06:54;;;;;;;4.10;4.00;;;;;;;-145.94;58.34;76890.06;5116377;28;20216;-66
2023/06/27 03:09:22;;;;;;;4.43;4.03;;;;;;;-145.94;58.35;76890.06;5098224;28;20215;-66
2023/06/27 03:11:48;;;;;;;4.40;4.20;;;;;;;-145.94;58.15;76888.03;5097180;28;20217;-66
2023/06/27 03:14:20;;;;;;;5.83;5.10;;;;;;;-145.94;58.23;76885.97;5098194;28;20535;-66
2023/06/27 03:16:49;;;;;;;5.03;4.77;;;;;;;-145.94;58.28;76883.94;5097547;28;20280;-66
2023/06/27 03:19:16;;;;;;;4.87;4.53;;;;;;;-145.94;58.12;76873.75;5097217;28;20284;-66
2023/06/27 03:21:52;;;;;;;4.60;4.40;;;;;;;-145.94;58.42;76873.75;5097459;28;20715;-67
2023/06/27 03:24:19;;;;;;;4.57;4.27;;;;;;;-145.94;58.22;76875.78;5115975;28;20197;-66
2023/06/27 03:26:48;;;;;;;6.20;5.60;;;;;;;-145.94;58.23;76863.56;5097305;28;20200;-66
2023/06/27 03:29:15;;;;;;;7.73;5.43;;;;;;;-145.94;57.77;76859.47;5096869;28;20756;-66
2023/06/27 03:31:42;;;;;;;6.33;5.97;;;;;;;-145.94;57.96;76847.25;5097053;28;20721;-66
2023/06/27 03:34:09;;;;;;;9.67;6.27;;;;;;;-145.94;57.93;76847.25;5115225;28;20681;-66
2023/06/27 03:36:35;;;;;;;6.27;5.77;;;;;;;-145.94;57.95;76839.09;5097153;28;20189;-66
2023/06/27 03:39:03;;;;;;;6.30;6.00;;;;;;;-145.94;57.53;76839.09;5096748;28;20663;-66
2023/06/27 03:41:30;;;;;;;6.57;6.03;;;;;;;-145.94;57.90;76837.03;5097547;28;20216;-66
2023/06/27 03:43:56;;;;;;;6.40;5.80;;;;;;;-145.94;57.90;76835.00;5096786;28;20189;-66
2023/06/27 03:46:24;;;;;;;12.97;6.90;;;;;;;-145.94;57.15;76830.94;5096697;28;20242;-66
2023/06/27 03:48:54;;;;;;;12.23;6.60;;;;;;;-145.94;57.62;76816.66;5115219;28;20193;-66
2023/06/27 03:51:20;;;;;;;11.57;6.20;;;;;;;-145.94;57.46;76822.78;5096528;28;20304;-66
2023/06/27 03:53:47;;;;;;;6.90;6.03;;;;;;;-145.94;57.38;76826.84;5114774;28;20682;-66
2023/06/27 03:56:13;;;;;;;6.40;6.00;;;;;;;-145.94;56.98;76816.66;5114826;28;20235;-66
2023/06/27 03:58:39;;;;;;;6.80;6.23;;;;;;;-145.94;57.10;76818.69;5114746;28;20655;-66
2023/06/27 04:01:07;;;;;;;6.30;5.80;;;;;;;-145.94;57.72;76814.63;5096630;28;20220;-66
2023/06/27 04:03:33;;;;;;;6.30;5.93;;;;;;;-145.94;57.57;76820.72;5096138;28;20200;-66
2023/06/27 04:06:00;;;;;;;6.97;6.57;;;;;;;-145.94;57.24;76818.69;5096352;28;20242;-66
2023/06/27 04:08:26;;;;;;;6.43;5.97;;;;;;;-145.94;57.08;76820.72;5096576;28;20189;-66
2023/06/27 04:10:53;;;;;;;9.27;6.33;;;;;;;-145.94;56.94;76816.66;5096200;28;20213;-66
2023/06/27 04:13:19;;;;;;;9.60;6.70;;;;;;;-145.94;56.90;76818.69;5096146;28;20214;-66
2023/06/27 04:15:46;;;;;;;21.67;6.73;;;;;;;-145.94;57.12;76812.56;5114922;28;20219;-66
2023/06/27 04:18:13;;;;;;;8.73;5.57;;;;;;;-145.94;56.86;76800.34;5096168;28;20258;-66
2023/06/27 04:20:40;;;;;;;6.83;5.93;;;;;;;-145.94;56.67;76796.25;5096000;28;20217;-66
2023/06/27 04:23:06;;;;;;;18.53;5.77;;;;;;;-145.94;56.95;76804.41;5096067;28;20185;-66
2023/06/27 04:25:33;;;;;;;13.37;7.03;;;;;;;-145.94;56.39;76800.34;5114234;28;20193;-66
2023/06/27 04:28:01;;;;;;;7.53;5.60;;;;;;;-145.94;57.26;76802.38;5095956;28;20679;-66
2023/06/27 04:30:29;;;;;;;19.87;6.03;;;;;;;-145.94;57.01;76802.38;5114070;28;20212;-66
2023/06/27 04:32:55;;;;;;;20.90;5.90;;;;;;;-145.94;56.91;76804.41;5114261;28;20201;-66
2023/06/27 04:35:23;;;;;;;11.47;6.47;;;;;;;-145.94;56.55;76792.19;5114056;28;20196;-66
2023/06/27 04:37:51;;;;;;;21.40;6.73;;;;;;;-145.94;56.72;76788.09;5114053;28;20242;-66
2023/06/27 04:40:18;;;;;;;6.57;6.07;;;;;;;-145.94;56.49;76784.03;5113965;28;20215;-66
2023/06/27 04:42:45;;;;;;;6.43;5.27;;;;;;;-145.94;56.46;76777.91;5095733;28;20185;-66
2023/06/27 04:45:11;;;;;;;7.37;6.80;;;;;;;-145.94;56.52;76767.72;5113966;28;20230;-66
2023/06/27 04:47:38;;;;;;;10.90;7.00;;;;;;;-145.94;56.66;76777.91;5114434;28;20253;-66
2023/06/27 04:50:05;;;;;;;8.90;6.57;;;;;;;-145.94;56.63;76771.78;5113798;28;20262;-66
2023/06/27 04:52:32;;;;;;;7.37;6.77;;;;;;;-145.94;56.07;76775.88;5113970;28;20679;-66
2023/06/27 04:54:58;;;;;;;6.93;6.33;;;;;;;-145.94;56.33;76767.72;5113866;28;20198;-66
2023/06/27 04:57:25;;;;;;;10.07;5.90;;;;;;;-145.94;56.16;76757.50;5114050;28;20185;-66
2023/06/27 04:59:51;;;;;;;7.50;6.43;;;;;;;-145.94;56.69;76749.34;5113940;28;20212;-66
2023/06/27 05:02:18;;;;;;;16.37;6.27;;;;;;;-145.94;55.87;76741.19;5113996;28;20181;-66
2023/06/27 05:04:44;;;;;;;9.80;6.23;;;;;;;-145.94;55.34;76733.03;5113968;28;20659;-66
2023/06/27 05:07:11;;;;;;;7.23;5.87;;;;;;;-145.94;55.32;76728.97;5113649;28;20250;-66
2023/06/27 05:09:37;;;;;;;9.90;5.40;;;;;;;-145.94;56.88;76726.94;5113852;28;20585;-67
2023/06/27 05:12:04;;;;;;;7.93;5.87;;;;;;;-145.94;55.66;76726.94;5114104;28;20192;-66
2023/06/27 05:14:31;;;;;;;10.47;5.37;;;;;;;-145.94;55.69;76720.81;5113547;28;20189;-66
2023/06/27 05:16:57;;;;;;;7.80;4.60;;;;;;;-145.94;56.26;76710.63;5117609;28;20185;-66
2023/06/27 05:19:23;;;;;;;6.00;5.53;;;;;;;-145.94;55.55;76708.56;5117773;28;20188;-66
2023/06/27 05:21:50;;;;;;;16.83;5.77;;;;;;;-145.94;56.45;76696.34;5117668;28;20265;-66
2023/06/27 05:24:17;;;;;;;9.17;5.30;;;;;;;-145.94;55.51;76696.34;5118083;28;20218;-66
2023/06/27 05:26:43;;;;;;;8.83;5.87;;;;;;;-145.94;55.56;76692.25;5117676;28;20189;-66
2023/06/27 05:29:10;;;;;;;20.50;6.03;;;;;;;-145.94;55.31;76686.16;5117505;28;20230;-66
2023/06/27 05:31:36;;;;;;;6.67;5.17;;;;;;;-145.94;55.09;76694.31;5117621;28;20261;-66
2023/06/27 05:34:03;;;;;;;30.97;5.30;;;;;;;-145.94;55.14;76686.16;5117442;28;20227;-66
2023/06/27 05:36:29;;;;;;;7.27;5.47;;;;;;;-145.94;55.84;76675.94;5117508;28;20208;-66
2023/06/27 05:38:55;;;;;;;9.33;5.30;;;;;;;-145.94;55.45;76669.84;5117462;28;20190;-66
2023/06/27 05:41:23;;;;;;;8.63;4.40;;;;;;;-145.94;55.61;76678.00;5117329;28;20209;-66
2023/06/27 05:43:49;;;;;;;6.00;5.17;;;;;;;-145.94;55.77;76667.78;5117673;28;20177;-66
2023/06/27 05:46:16;;;;;;;8.27;5.37;;;;;;;-145.94;55.63;76682.06;5117379;28;20189;-66
2023/06/27 05:48:42;;;;;;;24.60;5.60;;;;;;;-145.94;55.85;76688.19;5117609;28;20193;-66
2023/06/27 05:51:09;;;;;;;10.10;5.40;;;;;;;-145.94;55.76;76682.06;5117207;28;20212;-67
2023/06/27 05:53:35;;;;;;;12.87;5.93;;;;;;;-145.94;55.82;76684.09;5117150;28;20735;-67
2023/06/27 05:56:02;;;;;;;11.13;5.37;;;;;;;-145.94;56.41;76690.22;5117123;28;20189;-67
2023/06/27 05:58:29;;;;;;;10.87;6.07;;;;;;;-145.94;56.00;76688.19;5117058;28;20181;-66
2023/06/27 06:00:55;;;;;;;13.57;5.60;;;;;;;-145.94;55.93;76698.38;5117086;28;20204;-66
2023/06/27 06:03:23;;;;;;;8.17;5.00;;;;;;;-145.94;56.22;76692.25;5117267;28;20185;-66
2023/06/27 06:05:49;;;;;;;12.90;5.93;;;;;;;-145.94;55.98;76700.41;5117543;28;20693;-66
2023/06/27 06:08:16;;;;;;;13.07;6.37;;;;;;;-145.94;56.43;76702.47;5116895;28;20181;-66
2023/06/27 06:10:42;;;;;;;8.73;4.93;;;;;;;-145.94;56.95;76712.66;5117045;28;20220;-66
2023/06/27 06:13:09;;;;;;;14.37;6.40;;;;;;;-145.94;56.50;76708.56;5116720;28;20266;-66
2023/06/27 06:15:35;;;;;;;15.17;5.57;;;;;;;-145.94;56.40;76704.50;5116638;28;20193;-66
2023/06/27 06:18:02;;;;;;;17.03;6.63;;;;;;;-145.94;56.33;76702.47;5116950;28;20193;-66
2023/06/27 06:20:29;;;;;;;6.53;5.87;;;;;;;-145.94;56.43;76708.56;5116748;28;20205;-66
2023/06/27 06:22:56;;;;;;;21.57;6.60;;;;;;;-145.94;56.40;76700.41;5116921;28;20181;-66
2023/06/27 06:25:22;;;;;;;9.30;6.47;;;;;;;-145.94;56.53;76700.41;5116547;28;20188;-66
2023/06/27 06:27:48;;;;;;;17.30;6.83;;;;;;;-145.94;56.56;76690.22;5116358;28;20200;-66
2023/06/27 06:30:15;;;;;;;8.60;6.70;;;;;;;-145.94;56.33;76690.22;5116383;28;20213;-67
2023/06/27 06:32:41;;;;;;;9.03;6.73;;;;;;;-145.94;56.73;76684.09;5116300;28;20205;-66
2023/06/27 06:35:08;;;;;;;8.67;6.83;;;;;;;-145.94;56.25;76692.25;5116417;28;20194;-66
2023/06/27 06:37:35;;;;;;;23.53;6.77;;;;;;;-145.94;56.63;76680.03;5116859;28;20608;-66
2023/06/27 06:40:02;;;;;;;7.03;6.33;;;;;;;-145.94;55.87;76667.78;5116201;28;20213;-66
2023/06/27 06:42:29;;;;;;;15.97;6.67;;;;;;;-145.94;56.71;76663.72;5116731;28;20260;-66
2023/06/27 06:44:55;;;;;;;11.77;7.80;;;;;;;-145.94;56.28;76651.47;5116073;28;20258;-66
2023/06/27 06:47:22;;;;;;;7.37;6.77;;;;;;;-145.94;56.02;76647.41;5116143;28;20595;-66
2023/06/27 06:49:48;;;;;;;16.63;6.40;;;;;;;-145.94;55.91;76643.31;5116008;28;20209;-67
2023/06/27 06:52:15;;;;;;;8.60;6.30;;;;;;;-145.94;56.05;76639.25;5116306;28;20651;-66
2023/06/27 06:54:43;;;;;;;19.30;7.17;;;;;;;-145.94;56.31;76645.38;5115923;28;20209;-66
2023/06/27 06:57:10;;;;;;;24.00;7.07;;;;;;;-145.94;56.50;76635.16;5116457;28;20166;-66
2023/06/27 06:59:36;;;;;;;21.80;7.07;;;;;;;-145.94;56.35;76639.25;5116400;28;20239;-67
2023/06/27 07:02:03;;;;;;;7.83;6.10;;;;;;;-145.94;56.71;76637.22;5116172;28;20165;-66
2023/06/27 07:04:29;;;;;;;16.17;6.30;;;;;;;-145.94;56.66;76631.09;5115901;28;20178;-66
2023/06/27 07:06:56;;;;;;;17.30;6.87;;;;;;;-145.94;55.97;76627.00;5115746;28;20228;-66
2023/06/27 07:09:22;;;;;;;14.60;7.47;;;;;;;-145.94;56.09;76616.81;5115750;28;20188;-67
2023/06/27 07:11:50;;;;;;;18.03;7.27;;;;;;;-145.94;56.11;76602.53;5115618;28;20258;-66
2023/06/27 07:14:20;;;;;;;72.10;12.80;;;;;;;-145.94;56.46;76596.44;5115563;28;20699;-66
2023/06/27 07:16:46;;;;;;;19.83;7.03;;;;;;;-145.94;55.88;76586.22;5116503;28;20178;-66
2023/06/27 07:19:13;;;;;;;10.97;6.77;;;;;;;-145.94;55.47;76580.13;5115534;28;20186;-66
2023/06/27 07:21:39;;;;;;;12.53;6.37;;;;;;;-145.94;56.13;76565.84;5115915;28;20254;-67
2023/06/27 07:24:06;;;;;;;21.60;6.97;;;;;;;-145.94;55.78;76571.97;5097400;28;20181;-67
2023/06/27 07:26:33;;;;;;;13.83;6.70;;;;;;;-145.94;55.36;76569.91;5115626;28;20182;-67
2023/06/27 07:29:00;;;;;;;9.23;5.37;;;;;;;-145.94;55.22;76557.69;5115302;28;20189;-67
2023/06/27 07:31:27;;;;;;;16.37;6.30;;;;;;;-145.94;55.33;76549.53;5115271;28;20208;-67
2023/06/27 07:33:55;;;;;;;10.03;7.10;;;;;;;-145.94;54.63;76535.25;5115127;28;20208;-67
2023/06/27 07:36:21;;;;;;;11.07;6.63;;;;;;;-145.94;54.89;76529.13;5115702;28;20202;-67
2023/06/27 07:38:48;;;;;;;13.80;6.47;;;;;;;-145.94;54.74;76529.13;5114439;28;20189;-67
2023/06/27 07:41:14;;;;;;;21.93;6.63;;;;;;;-145.94;54.54;76527.09;5114968;28;20735;-67
2023/06/27 07:43:40;;;;;;;7.07;5.43;;;;;;;-145.94;54.51;76523.03;5115053;28;20651;-67
2023/06/27 07:46:07;;;;;;;6.90;6.27;;;;;;;-145.94;54.90;76504.66;5115044;28;20655;-67
2023/06/27 07:48:33;;;;;;;12.97;6.57;;;;;;;-145.94;55.07;76502.63;5114998;28;20189;-67
2023/06/27 07:51:00;;;;;;;12.70;6.50;;;;;;;-145.94;54.85;76498.56;5114970;28;20209;-67
2023/06/27 07:53:26;;;;;;;18.37;6.37;;;;;;;-145.94;54.86;76480.19;5115085;28;20197;-67
2023/06/27 07:55:53;;;;;;;8.47;6.07;;;;;;;-145.94;54.22;76478.16;5114828;28;20189;-67
2023/06/27 07:58:19;;;;;;;14.70;7.20;;;;;;;-145.94;54.03;76463.88;5115353;28;20710;-67
2023/06/27 08:00:46;;;;;;;8.53;5.33;;;;;;;-145.94;53.37;76453.69;5114669;28;20204;-67
2023/06/27 08:03:12;;;;;;;9.30;5.37;;;;;;;-145.94;53.01;76447.56;5114702;28;20189;-66
2023/06/27 08:05:39;;;;;;;9.93;5.67;;;;;;;-145.94;53.46;76433.31;5114885;28;20601;-67
2023/06/27 08:08:09;;;;;;;7.57;5.40;;;;;;;-145.94;51.90;76457.78;5115194;28;20525;-67
2023/06/27 08:10:36;;;;;;;13.43;5.93;;;;;;;-145.94;52.70;76439.41;5114447;28;20263;-67
2023/06/27 08:13:02;;;;;;;11.53;5.60;;;;;;;-145.94;53.46;76431.28;5114400;28;20611;-67
2023/06/27 08:15:29;;;;;;;17.00;5.73;;;;;;;-145.94;53.37;76423.13;5115011;28;20216;-67
2023/06/27 08:17:57;;;;;;;6.43;5.77;;;;;;;-145.94;51.99;76414.94;5114338;28;20193;-67
2023/06/27 08:20:23;;;;;;;9.53;6.27;;;;;;;-145.94;52.22;76423.13;5114290;28;20205;-67
2023/06/27 08:22:50;;;;;;;7.73;4.90;;;;;;;-145.94;52.30;76408.84;5114322;28;20193;-67
2023/06/27 08:25:16;;;;;;;11.57;5.43;;;;;;;-145.94;51.24;76398.66;5114262;28;20192;-67
2023/06/27 08:27:42;;;;;;;7.10;6.40;;;;;;;-145.94;50.55;76394.56;5114216;28;20543;-67
2023/06/27 08:30:09;;;;;;;16.97;5.70;;;;;;;-145.94;50.86;76374.19;5114148;28;20747;-67
2023/06/27 08:32:36;;;;;;;6.83;5.20;;;;;;;-145.94;51.90;76345.63;5114708;28;20193;-68
2023/06/27 08:35:05;;;;;;;5.90;4.40;;;;;;;-145.94;50.17;76368.06;5114423;28;20201;-67
2023/06/27 08:37:32;;;;;;;5.43;4.70;;;;;;;-145.94;50.04;76357.88;5114599;28;20193;-67
2023/06/27 08:39:58;;;;;;;20.40;4.73;;;;;;;-145.94;49.00;76345.63;5114509;28;20213;-68
2023/06/27 08:42:25;;;;;;;7.20;3.73;;;;;;;-145.94;48.42;76341.56;5114304;28;20188;-67
2023/06/27 08:44:51;;;;;;;3.87;3.43;;;;;;;-145.94;48.10;76341.56;5113974;28;20185;-68
2023/06/27 08:47:21;;;;;;;5.53;2.20;;;;;;;-145.94;45.18;76323.19;5114175;28;20189;-68
2023/06/27 08:49:50;;;;;;;3.47;2.90;;;;;;;-145.94;45.81;76325.25;5112978;28;20632;-67
2023/06/27 08:52:19;;;;;;;5.83;3.43;;;;;;;-145.94;46.07;76331.34;5114141;28;20238;-67
2023/06/27 08:54:53;;;;;;;8.97;3.13;;;;;;;-145.94;47.02;76313.00;5113798;28;20201;-67
2023/06/27 08:57:26;;;;;;;4.27;3.97;;;;;;;-145.94;48.28;76310.97;5114111;28;20184;-67
2023/06/27 08:59:54;;;;;;;4.90;3.10;;;;;;;-145.94;46.07;76294.66;5114013;28;20216;-67
2023/06/27 09:02:21;;;;;;;3.50;2.70;;;;;;;-145.94;45.61;76288.53;5113718;28;20181;-67
2023/06/27 09:04:48;;;;;;;3.47;3.23;;;;;;;-145.94;47.44;76274.28;5113702;28;20184;-67
2023/06/27 09:07:15;;;;;;;4.60;3.00;;;;;;;-145.94;47.30;76270.19;5113920;28;20189;-67
2023/06/27 09:09:41;;;;;;;7.70;2.77;;;;;;;-145.94;46.47;76260.00;5113784;28;20212;-68
2023/06/27 09:12:08;;;;;;;3.47;3.17;;;;;;;-145.94;45.96;76245.72;5113656;28;20189;-67
2023/06/27 09:14:34;;;;;;;3.20;3.00;;;;;;;-145.94;43.35;76262.03;5113878;28;20605;-67
2023/06/27 09:17:03;;;;;;;2.93;2.83;;;;;;;-145.94;44.09;76272.22;5114196;28;20581;-67
2023/06/27 09:19:31;;;;;;;5.20;2.60;;;;;;;-145.94;45.18;76276.31;5113509;28;20185;-68
2023/06/27 09:21:58;;;;;;;3.87;2.33;;;;;;;-145.94;44.40;76276.31;5113563;28;20185;-67
2023/06/27 09:24:24;;;;;;;11.47;3.07;;;;;;;-145.94;44.95;76284.47;5113801;28;20185;-67
2023/06/27 09:26:51;;;;;;;3.07;2.87;;;;;;;-145.94;44.70;76280.38;5113489;28;20197;-67
2023/06/27 09:29:19;;;;;;;3.50;3.20;;;;;;;-145.94;43.02;76262.03;5113832;28;20201;-67
2023/06/27 09:31:46;;;;;;;3.00;2.90;;;;;;;-145.94;45.17;76245.72;5113438;28;20201;-67
2023/06/27 09:34:13;;;;;;;3.37;3.13;;;;;;;-145.94;44.96;76221.25;5113641;28;20238;-67
2023/06/27 09:36:40;;;;;;;3.13;2.90;;;;;;;-145.94;43.91;76215.13;5113417;28;20271;-68
2023/06/27 09:39:12;;;;;;;4.87;2.47;;;;;;;-145.94;44.44;76221.25;5113694;28;20587;-67
2023/06/27 09:41:47;;;;;;;4.57;2.97;;;;;;;-145.94;44.63;76217.19;5113337;28;20269;-67
2023/06/27 09:44:25;;;;;;;2.77;2.57;;;;;;;-145.94;42.87;76209.03;5113370;28;20169;-67
2023/06/27 09:46:52;;;;;;;6.53;2.47;;;;;;;-145.94;44.65;76209.03;5113561;28;20294;-67
2023/06/27 09:49:20;;;;;;;3.37;3.13;;;;;;;-145.94;43.73;76227.38;5113913;28;20193;-67
2023/06/27 09:51:52;;;;;;;5.43;2.80;;;;;;;-145.94;44.32;76217.19;5113053;28;20694;-67
2023/06/27 09:54:21;;;;;;;7.30;3.00;;;;;;;-145.94;45.29;76202.91;5113794;28;20205;-67
2023/06/27 09:56:51;;;;;;;4.10;2.67;;;;;;;-145.94;45.05;76172.31;5113225;28;20268;-67
2023/06/27 09:59:23;;;;;;;4.20;2.53;;;;;;;-145.94;42.92;76178.44;5113224;28;20177;-67
2023/06/27 10:02:15;;;;;;;5.20;2.77;;;;;;;-145.94;44.19;76178.44;5115619;28;20200;-67
2023/06/27 10:04:42;;;;;;;3.37;3.17;;;;;;;-145.94;44.34;76172.31;5117291;28;20184;-67
2023/06/27 10:07:11;;;;;;;2.73;2.60;;;;;;;-145.94;43.31;76166.22;5117306;28;20185;-67
2023/06/27 10:09:37;;;;;;;3.60;2.17;;;;;;;-145.94;42.84;76158.06;5117200;28;20217;-68
2023/06/27 10:12:05;;;;;;;6.67;2.57;;;;;;;-145.94;42.64;76153.97;5098198;28;20237;-67
2023/06/27 10:14:32;;;;;;;3.57;3.27;;;;;;;-145.94;43.20;76141.75;5116684;28;20372;-67
2023/06/27 10:17:00;;;;;;;3.73;2.17;;;;;;;-145.94;40.60;76127.47;5116959;28;20199;-66
2023/06/27 10:19:29;;;;;;;3.03;2.83;;;;;;;-145.94;42.26;76135.63;5116955;28;20189;-68
2023/06/27 10:21:59;;;;;;;5.97;2.80;;;;;;;-145.94;42.77;76137.66;5117214;28;20189;-67
2023/06/27 10:24:28;;;;;;;2.33;1.97;;;;;;;-145.94;40.08;76133.59;5116887;28;20193;-68
2023/06/27 10:27:01;;;;;;;2.53;2.40;;;;;;;-145.94;40.86;76137.66;5116529;28;20181;-68
2023/06/27 10:29:31;;;;;;;2.93;2.77;;;;;;;-145.94;41.79;76141.75;5116436;28;20199;-68
2023/06/27 10:31:58;;;;;;;6.87;2.77;;;;;;;-145.94;40.98;76139.69;5116723;28;20185;-68
2023/06/27 10:34:24;;;;;;;21.77;2.37;;;;;;;-145.94;41.65;76123.41;5116948;28;20698;-68
2023/06/27 10:36:54;;;;;;;4.00;2.00;;;;;;;-145.94;40.67;76125.44;5116847;28;20196;-67
2023/06/27 10:39:32;;;;;;;9.17;2.43;;;;;;;-145.94;40.94;76133.59;5116560;28;20220;-67
2023/06/27 10:42:01;;;;;;;7.60;3.80;;;;;;;-145.94;40.73;76139.69;5116529;28;20189;-67
2023/06/27 10:44:28;;;;;;;5.43;2.77;;;;;;;-145.94;41.39;76117.28;5116521;28;20189;-67
2023/06/27 10:47:15;;;;;;;4.10;2.53;;;;;;;-145.94;41.95;76078.53;5116220;28;20188;-67
2023/06/27 10:49:46;;;;;;;2.33;2.20;;;;;;;-145.94;40.80;76070.38;5099055;28;20197;-68
2023/06/27 10:52:23;;;;;;;2.13;2.13;;;;;;;-145.94;40.26;76103.00;5116664;28;20662;-68
2023/06/27 10:55:15;;;;;;;4.30;4.00;;;;;;;-145.94;40.47;76123.41;5116311;28;20550;-67
2023/06/27 10:57:48;;;;;;;4.73;2.30;;;;;;;-145.94;40.89;76111.16;5116725;28;20185;-67
2023/06/27 11:00:29;;;;;;;2.40;2.40;;;;;;;-145.94;41.12;76090.78;5115913;28;20204;-68
2023/06/27 11:02:56;;;;;;;7.30;2.67;;;;;;;-145.94;39.52;76103.00;5115856;28;20659;-67
2023/06/27 11:05:41;;;;;;;3.80;2.07;;;;;;;-145.94;41.05;76076.50;5116342;28;20181;-67
2023/06/27 11:08:11;;;;;;;6.87;2.73;;;;;;;-145.94;41.05;76096.88;5115755;28;20264;-68
2023/06/27 11:10:48;;;;;;;5.00;2.40;;;;;;;-145.94;39.66;76092.81;5116282;28;20213;-67
2023/06/27 11:13:16;;;;;;;6.40;2.80;;;;;;;-145.94;40.31;76086.69;5115281;28;20183;-68
2023/06/27 11:15:44;;;;;;;2.00;1.90;;;;;;;-145.94;39.23;76123.41;5115647;28;20193;-67
2023/06/27 11:18:15;;;;;;;2.87;2.77;;;;;;;-145.94;40.87;76127.47;5115636;28;20187;-67